createdAt,value
2017-08-27T00:00:05.762Z,95.3
2017-08-27T00:01:04.951Z,95.3
2017-08-27T00:02:04.534Z,95.3
2017-08-27T00:03:03.975Z,95.3
2017-08-27T00:04:03.545Z,95.1
2017-08-27T00:05:02.606Z,95.2
2017-08-27T00:06:01.798Z,95.1
2017-08-27T00:07:01.364Z,95.1
2017-08-27T00:08:00.798Z,95.2
2017-08-27T00:09:59.625Z,95.2
2017-08-27T00:10:58.943Z,95.2
2017-08-27T00:11:58.384Z,95.2
2017-08-27T00:12:57.836Z,95.2
2017-08-27T00:13:57.161Z,95.2
2017-08-27T00:14:56.718Z,95.3
2017-08-27T00:17:54.427Z,95.3
2017-08-27T00:18:54.110Z,95.5
2017-08-27T00:19:53.063Z,95.4
2017-08-27T00:20:52.871Z,95.4
2017-08-27T00:21:52.186Z,95.4
2017-08-27T00:22:51.497Z,95.3
2017-08-27T00:23:50.813Z,95.3
2017-08-27T00:24:49.877Z,95.4
2017-08-27T00:25:49.565Z,95.4
2017-08-27T00:26:48.622Z,95.5
2017-08-27T00:27:48.315Z,95.6
2017-08-27T00:28:47.504Z,95.6
2017-08-27T00:29:46.684Z,95.5
2017-08-27T00:30:46.370Z,95.4
2017-08-27T00:31:45.815Z,95.4
2017-08-27T00:32:44.880Z,95.4
2017-08-27T00:33:44.583Z,95.3
2017-08-27T00:34:44.027Z,95.4
2017-08-27T00:35:42.846Z,95.4
2017-08-27T00:36:42.426Z,95.4
2017-08-27T00:37:41.874Z,95.4
2017-08-27T00:39:40.451Z,95.4
2017-08-27T00:41:39.285Z,95.4
2017-08-27T00:42:38.722Z,95.4
2017-08-27T00:43:38.168Z,95.4
2017-08-27T00:44:37.245Z,95.4
2017-08-27T00:45:36.814Z,95.5
2017-08-27T00:46:36.256Z,95.4
2017-08-27T00:48:34.930Z,95.1
2017-08-27T00:49:34.360Z,95.1
2017-08-27T00:50:33.675Z,95
2017-08-27T00:51:32.858Z,94.9
2017-08-27T00:52:32.291Z,95
2017-08-27T00:53:31.739Z,94.9
2017-08-27T00:54:31.297Z,95
2017-08-27T00:55:30.614Z,95.1
2017-08-27T00:56:29.679Z,95.1
2017-08-27T00:57:29.120Z,95.2
2017-08-27T00:58:28.688Z,95.2
2017-08-27T00:58:59.434Z,95.2
2017-08-27T00:59:29.924Z,95.2
2017-08-27T01:00:00.543Z,95.2
2017-08-27T01:01:26.789Z,95.2
2017-08-27T01:02:25.986Z,95.2
2017-08-27T01:03:25.553Z,95.1
2017-08-27T01:04:24.498Z,95
2017-08-27T01:05:23.940Z,95.1
2017-08-27T01:06:23.259Z,95.1
2017-08-27T01:07:22.584Z,95.1
2017-08-27T01:08:22.024Z,95
2017-08-27T01:09:21.455Z,95
2017-08-27T01:10:21.023Z,95
2017-08-27T01:11:19.986Z,95.1
2017-08-27T01:12:19.669Z,95
2017-08-27T01:13:19.108Z,95
2017-08-27T01:15:17.549Z,95
2017-08-27T01:16:16.889Z,94.8
2017-08-27T01:17:16.329Z,94.8
2017-08-27T01:17:47.076Z,94.8
2017-08-27T01:18:17.565Z,94.8
2017-08-27T01:18:48.207Z,94.8
2017-08-27T01:20:14.695Z,94.7
2017-08-27T01:21:13.759Z,94.7
2017-08-27T01:23:12.464Z,94.6
2017-08-27T01:24:12.148Z,94.5
2017-08-27T01:25:11.589Z,94.5
2017-08-27T01:26:10.775Z,94.6
2017-08-27T01:27:10.090Z,94.6
2017-08-27T01:28:09.529Z,94.7
2017-08-27T01:29:08.966Z,94.9
2017-08-27T01:30:08.290Z,94.5
2017-08-27T01:31:07.730Z,94.6
2017-08-27T01:32:06.688Z,94.9
2017-08-27T01:34:05.885Z,94.4
2017-08-27T01:35:04.814Z,94.4
2017-08-27T01:36:04.516Z,94.3
2017-08-27T01:37:03.958Z,94.5
2017-08-27T01:38:03.273Z,94.5
2017-08-27T01:39:02.210Z,94.6
2017-08-27T01:40:01.662Z,94.6
2017-08-27T01:41:00.977Z,94.7
2017-08-27T01:42:00.414Z,94.6
2017-08-27T01:43:00.104Z,94.7
2017-08-27T01:44:58.449Z,94.7
2017-08-27T01:45:57.900Z,94.8
2017-08-27T01:46:57.217Z,94.8
2017-08-27T01:47:56.527Z,94.9
2017-08-27T01:48:55.982Z,94.8
2017-08-27T01:49:55.293Z,94.9
2017-08-27T01:50:54.598Z,94.9
2017-08-27T01:51:53.919Z,94.9
2017-08-27T01:52:53.364Z,94.9
2017-08-27T01:53:52.920Z,95
2017-08-27T01:54:52.232Z,94.9
2017-08-27T01:55:51.674Z,95
2017-08-27T01:56:50.988Z,95
2017-08-27T01:57:50.431Z,95
2017-08-27T01:58:49.629Z,95
2017-08-27T01:59:48.952Z,94.7
2017-08-27T02:00:48.520Z,94.7
2017-08-27T02:01:47.710Z,94.8
2017-08-27T02:02:47.278Z,94.7
2017-08-27T02:03:46.582Z,94.9
2017-08-27T02:04:46.146Z,94.8
2017-08-27T02:05:45.209Z,94.8
2017-08-27T02:06:44.270Z,94.8
2017-08-27T02:07:44.085Z,94.7
2017-08-27T02:08:43.274Z,94.6
2017-08-27T02:09:42.470Z,94.7
2017-08-27T02:10:42.042Z,94.8
2017-08-27T02:11:41.596Z,94.7
2017-08-27T02:12:40.918Z,94.7
2017-08-27T02:13:39.852Z,94.8
2017-08-27T02:14:39.289Z,94.7
2017-08-27T02:15:38.845Z,94.5
2017-08-27T02:16:38.029Z,94.5
2017-08-27T02:18:36.975Z,94.6
2017-08-27T02:19:36.294Z,94.6
2017-08-27T02:20:35.734Z,94.6
2017-08-27T02:21:35.294Z,94.6
2017-08-27T02:22:34.527Z,94.6
2017-08-27T02:23:33.988Z,94.5
2017-08-27T02:24:32.934Z,94.5
2017-08-27T02:25:32.497Z,94.1
2017-08-27T02:26:31.560Z,94.3
2017-08-27T02:27:31.125Z,94.2
2017-08-27T02:28:30.694Z,94.4
2017-08-27T02:29:29.876Z,94.5
2017-08-27T02:30:29.332Z,94.5
2017-08-27T02:31:28.788Z,94.6
2017-08-27T02:32:27.981Z,94.5
2017-08-27T02:33:27.297Z,94.6
2017-08-27T02:34:26.737Z,94.4
2017-08-27T02:35:26.176Z,94.3
2017-08-27T02:36:25.616Z,94.3
2017-08-27T02:38:24.194Z,94.2
2017-08-27T02:39:23.780Z,94.2
2017-08-27T02:40:22.988Z,94.3
2017-08-27T02:41:22.315Z,94.5
2017-08-27T02:42:21.757Z,94.6
2017-08-27T02:43:20.821Z,94.5
2017-08-27T02:44:20.260Z,94.4
2017-08-27T02:45:19.581Z,94.3
2017-08-27T02:46:19.276Z,94.1
2017-08-27T02:47:18.342Z,94.1
2017-08-27T02:48:17.653Z,94.2
2017-08-27T02:49:17.098Z,94.3
2017-08-27T02:50:16.288Z,94.6
2017-08-27T02:51:15.731Z,94.2
2017-08-27T02:52:15.302Z,94.1
2017-08-27T02:53:14.898Z,94
2017-08-27T02:54:14.211Z,94.1
2017-08-27T02:55:13.527Z,94.2
2017-08-27T02:56:12.861Z,94.2
2017-08-27T02:58:11.555Z,94.4
2017-08-27T02:59:11.123Z,94.4
2017-08-27T03:00:10.050Z,94.5
2017-08-27T03:01:09.750Z,94.6
2017-08-27T03:02:08.823Z,94.4
2017-08-27T03:03:08.147Z,94.4
2017-08-27T03:04:07.597Z,94.3
2017-08-27T03:05:07.029Z,94.4
2017-08-27T03:06:06.472Z,94.3
2017-08-27T03:07:05.542Z,94.3
2017-08-27T03:08:05.358Z,94.3
2017-08-27T03:09:04.544Z,94.4
2017-08-27T03:10:04.135Z,94.4
2017-08-27T03:11:03.204Z,94.6
2017-08-27T03:13:02.026Z,94.3
2017-08-27T03:14:01.580Z,94.3
2017-08-27T03:15:00.634Z,94.3
2017-08-27T03:15:59.701Z,94.3
2017-08-27T03:16:59.374Z,94.4
2017-08-27T03:17:58.937Z,94.4
2017-08-27T03:18:57.871Z,94.4
2017-08-27T03:19:57.563Z,94.4
2017-08-27T03:20:56.620Z,94.3
2017-08-27T03:21:55.944Z,94.3
2017-08-27T03:22:55.248Z,94.3
2017-08-27T03:23:54.814Z,94.3
2017-08-27T03:24:54.251Z,94.3
2017-08-27T03:25:53.939Z,94.2
2017-08-27T03:26:53.123Z,94.3
2017-08-27T03:27:52.443Z,94.3
2017-08-27T03:28:51.900Z,94.3
2017-08-27T03:29:51.089Z,94.2
2017-08-27T03:30:50.529Z,94.2
2017-08-27T03:31:50.001Z,93.9
2017-08-27T03:32:48.932Z,93.9
2017-08-27T03:33:48.378Z,93.4
2017-08-27T03:34:47.937Z,93.5
2017-08-27T03:35:47.000Z,93.4
2017-08-27T03:36:46.567Z,93.4
2017-08-27T03:37:46.064Z,93.5
2017-08-27T03:38:45.140Z,93.3
2017-08-27T03:39:44.577Z,93.4
2017-08-27T03:40:44.383Z,93.5
2017-08-27T03:42:43.085Z,93.5
2017-08-27T03:43:42.137Z,93.4
2017-08-27T03:44:41.704Z,93.2
2017-08-27T03:45:40.688Z,93.1
2017-08-27T03:46:40.502Z,93.1
2017-08-27T03:47:39.453Z,93.2
2017-08-27T03:48:39.041Z,92.9
2017-08-27T03:49:38.099Z,92.2
2017-08-27T03:50:37.922Z,92.3
2017-08-27T03:51:37.245Z,92.4
2017-08-27T03:52:36.304Z,92.4
2017-08-27T03:53:35.622Z,92.5
2017-08-27T03:54:35.163Z,92.3
2017-08-27T03:55:34.482Z,92.3
2017-08-27T03:56:34.054Z,92.4
2017-08-27T03:57:33.253Z,91.7
2017-08-27T03:58:32.698Z,91.5
2017-08-27T03:59:32.014Z,91
2017-08-27T04:00:31.452Z,91.3
2017-08-27T04:01:30.783Z,91
2017-08-27T04:02:29.847Z,91.5
2017-08-27T04:03:29.289Z,91.6
2017-08-27T04:04:28.948Z,91.3
2017-08-27T04:05:28.261Z,91.3
2017-08-27T04:06:27.451Z,91.4
2017-08-27T04:07:26.528Z,91.2
2017-08-27T04:08:26.336Z,91.5
2017-08-27T04:09:25.527Z,91.9
2017-08-27T04:10:24.959Z,91.4
2017-08-27T04:11:24.410Z,91
2017-08-27T04:12:23.600Z,91.2
2017-08-27T04:13:23.036Z,91.4
2017-08-27T04:14:22.610Z,91.5
2017-08-27T04:15:21.679Z,91.6
2017-08-27T04:16:20.999Z,91.7
2017-08-27T04:17:20.451Z,91.7
2017-08-27T04:18:19.889Z,91.8
2017-08-27T04:19:19.204Z,91.8
2017-08-27T04:20:18.583Z,91.5
2017-08-27T04:21:18.020Z,91
2017-08-27T04:22:17.338Z,91.3
2017-08-27T04:23:16.397Z,91.6
2017-08-27T04:24:15.973Z,91.4
2017-08-27T04:25:15.276Z,91.6
2017-08-27T04:26:14.843Z,91.5
2017-08-27T04:27:13.918Z,91.7
2017-08-27T04:29:12.611Z,92
2017-08-27T04:30:11.931Z,91.7
2017-08-27T04:31:11.236Z,92
2017-08-27T04:32:10.547Z,92
2017-08-27T04:33:09.997Z,92.3
2017-08-27T04:34:09.425Z,92.2
2017-08-27T04:36:08.377Z,92.2
2017-08-27T04:37:07.565Z,92.2
2017-08-27T04:38:06.757Z,92.3
2017-08-27T04:39:06.444Z,92.4
2017-08-27T04:41:05.151Z,92.8
2017-08-27T04:42:04.203Z,92.8
2017-08-27T04:43:03.660Z,92.8
2017-08-27T04:44:03.223Z,93
2017-08-27T04:45:02.292Z,93
2017-08-27T04:47:01.124Z,93.1
2017-08-27T04:48:00.565Z,93.3
2017-08-27T04:48:59.617Z,93.3
2017-08-27T04:49:59.178Z,93.4
2017-08-27T04:50:58.260Z,93.4
2017-08-27T04:51:57.575Z,93.4
2017-08-27T04:52:57.013Z,93.5
2017-08-27T04:53:56.327Z,93.6
2017-08-27T04:54:56.041Z,93.7
2017-08-27T04:55:55.113Z,94
2017-08-27T04:56:54.429Z,94.1
2017-08-27T04:57:53.999Z,94.2
2017-08-27T04:58:53.439Z,94.2
2017-08-27T04:59:52.387Z,94.2
2017-08-27T05:00:51.584Z,94.3
2017-08-27T05:01:51.158Z,94.3
2017-08-27T05:02:50.478Z,94.5
2017-08-27T05:03:49.676Z,94.5
2017-08-27T05:04:49.495Z,94.4
2017-08-27T05:05:48.815Z,94.3
2017-08-27T05:06:48.131Z,94.2
2017-08-27T05:07:47.081Z,94.3
2017-08-27T05:08:46.404Z,94.3
2017-08-27T05:09:45.723Z,94.2
2017-08-27T05:10:45.420Z,94.3
2017-08-27T05:11:44.490Z,94.3
2017-08-27T05:12:43.802Z,93.3
2017-08-27T05:13:43.381Z,93.2
2017-08-27T05:14:42.703Z,93.1
2017-08-27T05:15:41.883Z,90.6
2017-08-27T05:16:41.068Z,90.7
2017-08-27T05:19:39.404Z,90.7
2017-08-27T05:20:38.483Z,90.4
2017-08-27T05:21:38.172Z,90.5
2017-08-27T05:22:37.489Z,90.6
2017-08-27T05:23:36.691Z,91
2017-08-27T05:24:36.258Z,91.2
2017-08-27T05:25:35.565Z,91.4
2017-08-27T05:26:34.889Z,91.7
2017-08-27T05:27:34.210Z,91.6
2017-08-27T05:28:33.779Z,91.5
2017-08-27T05:29:32.840Z,91.6
2017-08-27T05:32:30.671Z,91.5
2017-08-27T05:33:30.358Z,91.8
2017-08-27T05:34:29.673Z,91.5
2017-08-27T05:35:28.976Z,91.3
2017-08-27T05:36:28.038Z,91.4
2017-08-27T05:37:27.724Z,91.5
2017-08-27T05:38:26.794Z,91.2
2017-08-27T05:39:26.263Z,91.5
2017-08-27T05:40:25.727Z,91.6
2017-08-27T05:41:24.920Z,91.7
2017-08-27T05:42:24.112Z,91.7
2017-08-27T05:43:23.676Z,91.9
2017-08-27T05:44:22.864Z,91.4
2017-08-27T05:45:22.193Z,91.4
2017-08-27T05:46:21.514Z,91.4
2017-08-27T05:47:20.824Z,91.4
2017-08-27T05:48:20.132Z,91.9
2017-08-27T05:49:19.475Z,91.5
2017-08-27T05:50:18.918Z,91.1
2017-08-27T05:51:18.366Z,91.3
2017-08-27T05:52:17.682Z,91.4
2017-08-27T05:53:16.998Z,90.8
2017-08-27T05:54:16.315Z,90.9
2017-08-27T05:55:15.526Z,91.2
2017-08-27T05:56:15.099Z,91.3
2017-08-27T05:57:14.420Z,91.4
2017-08-27T05:58:13.845Z,91.4
2017-08-27T05:59:13.046Z,90.1
2017-08-27T06:00:12.618Z,89.9
2017-08-27T06:01:11.944Z,89.7
2017-08-27T06:02:11.378Z,88.2
2017-08-27T06:03:10.182Z,88.3
2017-08-27T06:04:10.004Z,87
2017-08-27T06:05:08.828Z,87.8
2017-08-27T06:06:08.402Z,87.3
2017-08-27T06:07:08.103Z,86.8
2017-08-27T06:07:38.599Z,86.8
2017-08-27T06:09:06.727Z,86.5
2017-08-27T06:10:05.543Z,86.7
2017-08-27T06:11:04.997Z,85
2017-08-27T06:12:04.565Z,85.3
2017-08-27T06:13:03.872Z,85.3
2017-08-27T06:14:03.048Z,84.8
2017-08-27T06:16:01.867Z,84.1
2017-08-27T06:17:01.314Z,84.4
2017-08-27T06:18:00.513Z,84.1
2017-08-27T06:19:59.474Z,83.5
2017-08-27T06:20:58.803Z,81.4
2017-08-27T06:22:57.261Z,81.4
2017-08-27T06:23:56.707Z,82.6
2017-08-27T06:24:56.150Z,80.8
2017-08-27T06:25:55.464Z,82.4
2017-08-27T06:26:54.656Z,82
2017-08-27T06:27:53.962Z,82.7
2017-08-27T06:28:53.411Z,81.5
2017-08-27T06:31:51.521Z,82.5
2017-08-27T06:32:50.587Z,81.2
2017-08-27T06:33:50.401Z,82.2
2017-08-27T06:34:49.468Z,81.9
2017-08-27T06:35:48.532Z,80.7
2017-08-27T06:36:48.224Z,82
2017-08-27T06:37:47.411Z,81.6
2017-08-27T06:38:46.973Z,81.9
2017-08-27T06:39:46.038Z,81.5
2017-08-27T06:40:45.468Z,82.2
2017-08-27T06:42:44.066Z,81.2
2017-08-27T06:43:43.640Z,80.2
2017-08-27T06:44:43.099Z,81.2
2017-08-27T06:45:42.165Z,80.7
2017-08-27T06:46:41.470Z,79.2
2017-08-27T06:47:40.668Z,79
2017-08-27T06:48:40.236Z,80.3
2017-08-27T06:50:39.058Z,79.8
2017-08-27T06:51:38.372Z,79.7
2017-08-27T06:52:37.810Z,78.6
2017-08-27T06:53:36.873Z,78
2017-08-27T06:54:36.438Z,78.6
2017-08-27T06:55:36.022Z,79.4
2017-08-27T06:56:35.089Z,79.8
2017-08-27T06:57:34.274Z,80.1
2017-08-27T06:58:33.723Z,80.3
2017-08-27T06:59:33.278Z,78.3
2017-08-27T07:00:32.721Z,77.2
2017-08-27T07:01:31.657Z,76.9
2017-08-27T07:02:02.281Z,76.9
2017-08-27T07:02:32.903Z,77.2
2017-08-27T07:03:30.338Z,74.8
2017-08-27T07:05:29.298Z,75.4
2017-08-27T07:06:28.231Z,74.9
2017-08-27T07:07:28.055Z,75.5
2017-08-27T07:08:27.369Z,75.7
2017-08-27T07:09:26.672Z,76
2017-08-27T07:10:25.743Z,75.6
2017-08-27T07:11:25.429Z,74.3
2017-08-27T07:13:24.132Z,74.3
2017-08-27T07:14:23.192Z,73.2
2017-08-27T07:16:21.902Z,72.1
2017-08-27T07:17:21.588Z,72.2
2017-08-27T07:18:20.545Z,73.2
2017-08-27T07:19:20.116Z,72.2
2017-08-27T07:20:19.305Z,72
2017-08-27T07:21:19.008Z,72.9
2017-08-27T07:23:17.719Z,71.4
2017-08-27T07:24:16.651Z,72.2
2017-08-27T07:25:15.956Z,73
2017-08-27T07:26:15.272Z,70
2017-08-27T07:27:14.964Z,70.4
2017-08-27T07:28:14.412Z,70
2017-08-27T07:29:13.394Z,70.1
2017-08-27T07:30:12.963Z,70.6
2017-08-27T07:31:12.042Z,69.2
2017-08-27T07:32:11.599Z,70.2
2017-08-27T07:33:10.914Z,70
2017-08-27T07:34:10.103Z,69.1
2017-08-27T07:35:09.856Z,68.8
2017-08-27T07:36:08.797Z,68.8
2017-08-27T07:37:08.909Z,69
2017-08-27T07:38:07.481Z,68.1
2017-08-27T07:39:06.954Z,69
2017-08-27T07:40:06.282Z,69.1
2017-08-27T07:41:05.598Z,68.7
2017-08-27T07:43:04.303Z,68.1
2017-08-27T07:44:03.742Z,68.8
2017-08-27T07:45:02.816Z,67.4
2017-08-27T07:49:00.795Z,67.6
2017-08-27T07:50:59.496Z,67.4
2017-08-27T07:51:58.432Z,67.3
2017-08-27T07:52:57.749Z,67.5
2017-08-27T08:18:41.529Z,66.7
2017-08-27T08:22:38.756Z,64.7
2017-08-27T08:23:38.107Z,65.9
2017-08-27T08:24:37.675Z,65.3
2017-08-27T08:25:36.499Z,65.4
2017-08-27T08:28:35.085Z,65.1
2017-08-27T08:29:05.717Z,65.1
2017-08-27T08:30:33.846Z,62.4
2017-08-27T08:33:31.822Z,64.5
2017-08-27T08:34:31.395Z,62
2017-08-27T08:35:30.717Z,62.2
2017-08-27T08:36:30.147Z,62.7
2017-08-27T08:43:25.425Z,62.6
2017-08-27T09:03:13.005Z,61.1
2017-08-27T09:10:08.287Z,60.9
2017-08-27T09:12:07.148Z,61.4
2017-08-27T09:14:06.102Z,61.9
2017-08-27T09:16:04.676Z,61.4
2017-08-27T09:17:04.507Z,61.9
2017-08-27T09:18:03.732Z,61.3
2017-08-27T09:20:02.314Z,60.5
2017-08-27T09:22:01.275Z,60.9
2017-08-27T09:22:31.656Z,60.9
2017-08-27T09:24:59.162Z,61.4
2017-08-27T09:25:58.595Z,61.2
2017-08-27T09:26:58.159Z,60.8
2017-08-27T09:27:57.724Z,61.2
2017-08-27T09:28:57.019Z,61.5
2017-08-27T09:31:55.102Z,60.3
2017-08-27T09:33:53.949Z,60.3
2017-08-27T09:34:53.269Z,60.5
2017-08-27T09:35:52.229Z,60.2
2017-08-27T09:36:51.830Z,60.6
2017-08-27T09:37:51.531Z,59.8
2017-08-27T09:38:50.714Z,59.9
2017-08-27T09:39:50.051Z,59.9
2017-08-27T09:40:49.623Z,59.9
2017-08-27T09:41:49.079Z,59.8
2017-08-27T09:42:48.275Z,60.3
2017-08-27T09:43:47.597Z,59.5
2017-08-27T09:44:47.035Z,59.7
2017-08-27T09:45:46.354Z,59.4
2017-08-27T09:46:45.683Z,59.3
2017-08-27T09:47:45.004Z,58.2
2017-08-27T09:48:44.826Z,58.2
2017-08-27T09:49:44.146Z,59
2017-08-27T09:50:43.599Z,58.3
2017-08-27T09:51:43.042Z,59.2
2017-08-27T09:52:42.220Z,59.4
2017-08-27T09:53:41.411Z,59.6
2017-08-27T09:54:40.733Z,60.1
2017-08-27T09:55:40.339Z,59.2
2017-08-27T09:57:39.329Z,59.2
2017-08-27T09:58:38.521Z,59.3
2017-08-27T09:59:38.096Z,59
2017-08-27T10:00:37.303Z,59.2
2017-08-27T10:01:36.618Z,59.4
2017-08-27T10:02:36.060Z,59.3
2017-08-27T10:03:35.616Z,60
2017-08-27T10:04:34.930Z,59.2
2017-08-27T10:05:34.499Z,58.6
2017-08-27T10:06:33.939Z,59.2
2017-08-27T10:07:33.014Z,58
2017-08-27T10:08:32.333Z,58.3
2017-08-27T10:09:31.656Z,57.8
2017-08-27T10:10:31.354Z,58.5
2017-08-27T10:11:30.667Z,57.9
2017-08-27T10:13:29.371Z,58.2
2017-08-27T10:14:28.805Z,59
2017-08-27T10:15:28.121Z,58.5
2017-08-27T10:16:27.696Z,58.4
2017-08-27T10:17:26.900Z,58.7
2017-08-27T10:18:26.470Z,58.5
2017-08-27T10:19:25.906Z,58.2
2017-08-27T10:20:25.219Z,57.9
2017-08-27T10:21:24.657Z,57.4
2017-08-27T10:22:24.116Z,57.5
2017-08-27T10:23:23.306Z,58
2017-08-27T10:24:23.015Z,56.6
2017-08-27T10:25:22.083Z,56.4
2017-08-27T10:26:21.528Z,57.9
2017-08-27T10:27:20.979Z,55.9
2017-08-27T10:28:20.427Z,57.5
2017-08-27T10:29:19.742Z,57.4
2017-08-27T10:31:18.840Z,56.8
2017-08-27T10:32:18.158Z,58.1
2017-08-27T10:33:17.359Z,56.4
2017-08-27T10:34:16.798Z,56.9
2017-08-27T10:35:16.257Z,56.5
2017-08-27T10:36:15.846Z,55.8
2017-08-27T10:37:15.281Z,57
2017-08-27T10:38:14.215Z,56.1
2017-08-27T10:40:13.552Z,56.7
2017-08-27T10:41:12.503Z,55.8
2017-08-27T10:42:12.196Z,57.3
2017-08-27T10:44:11.029Z,57
2017-08-27T10:45:10.481Z,56.2
2017-08-27T10:46:09.673Z,56.2
2017-08-27T10:47:09.241Z,56
2017-08-27T10:48:08.816Z,56.3
2017-08-27T10:49:07.761Z,56.7
2017-08-27T10:50:07.455Z,56.4
2017-08-27T10:51:06.972Z,56.2
2017-08-27T10:52:06.165Z,56.9
2017-08-27T10:53:05.495Z,55.2
2017-08-27T10:54:04.947Z,55.5
2017-08-27T10:55:04.393Z,55.9
2017-08-27T10:56:03.939Z,55.6
2017-08-27T10:57:03.269Z,56.1
2017-08-27T10:58:02.338Z,55.8
2017-08-27T10:59:01.912Z,54.4
2017-08-27T11:00:01.603Z,55.7
2017-08-27T11:01:00.926Z,55.4
2017-08-27T11:02:00.109Z,55.5
2017-08-27T11:02:59.800Z,54.7
2017-08-27T11:03:59.117Z,54.6
2017-08-27T11:04:58.682Z,54.8
2017-08-27T11:05:58.115Z,55.2
2017-08-27T11:06:57.061Z,56
2017-08-27T11:07:56.759Z,55.7
2017-08-27T11:08:55.945Z,53.5
2017-08-27T11:09:55.905Z,53.8
2017-08-27T11:10:55.220Z,54.3
2017-08-27T11:11:54.282Z,54.7
2017-08-27T11:12:53.592Z,52.6
2017-08-27T11:13:53.160Z,52.1
2017-08-27T11:14:52.476Z,53
2017-08-27T11:15:51.804Z,52.9
2017-08-27T11:16:51.370Z,52.3
2017-08-27T11:17:51.073Z,52.2
2017-08-27T11:18:50.259Z,50.9
2017-08-27T11:19:49.832Z,50.7
2017-08-27T11:20:49.147Z,51.3
2017-08-27T11:21:48.479Z,52.4
2017-08-27T11:23:47.691Z,52
2017-08-27T11:24:47.151Z,51.3
2017-08-27T11:25:46.208Z,51.1
2017-08-27T11:26:45.888Z,50.7
2017-08-27T11:27:45.445Z,50.5
2017-08-27T11:28:44.396Z,50.5
2017-08-27T11:29:43.839Z,50.3
2017-08-27T11:30:43.667Z,50.2
2017-08-27T11:31:43.101Z,51
2017-08-27T11:32:42.158Z,51
2017-08-27T11:33:41.858Z,50.8
2017-08-27T11:34:41.326Z,51.2
2017-08-27T11:35:40.388Z,50.6
2017-08-27T11:36:39.719Z,50.9
2017-08-27T11:37:39.402Z,51.3
2017-08-27T11:38:38.602Z,49.9
2017-08-27T11:39:38.547Z,50.3
2017-08-27T11:40:37.999Z,51.1
2017-08-27T11:41:36.932Z,51.2
2017-08-27T11:42:36.511Z,51.9
2017-08-27T11:43:35.942Z,50.3
2017-08-27T11:44:35.258Z,51.3
2017-08-27T11:45:35.085Z,51.4
2017-08-27T11:46:34.271Z,51.2
2017-08-27T11:47:33.350Z,52.8
2017-08-27T11:48:33.304Z,51.4
2017-08-27T11:49:32.750Z,51.6
2017-08-27T11:50:32.076Z,51.2
2017-08-27T11:51:31.639Z,51.5
2017-08-27T11:52:31.081Z,51.6
2017-08-27T11:53:30.129Z,51.3
2017-08-27T11:54:29.954Z,51.1
2017-08-27T11:55:29.152Z,51.2
2017-08-27T11:56:28.350Z,52.3
2017-08-27T11:57:28.060Z,52.7
2017-08-27T11:58:27.498Z,52.5
2017-08-27T11:59:26.933Z,51.3
2017-08-27T12:00:26.244Z,52
2017-08-27T12:00:56.885Z,52
2017-08-27T12:01:27.144Z,51.4
2017-08-27T12:01:57.581Z,51.4
2017-08-27T12:02:28.088Z,51.1
2017-08-27T12:03:24.514Z,52
2017-08-27T12:04:24.070Z,51.5
2017-08-27T12:05:23.169Z,51.3
2017-08-27T12:06:22.612Z,51.1
2017-08-27T12:07:22.050Z,51.4
2017-08-27T12:09:21.016Z,50.4
2017-08-27T12:11:19.975Z,50.6
2017-08-27T12:12:19.412Z,51
2017-08-27T12:13:18.596Z,51.4
2017-08-27T12:14:18.431Z,50.6
2017-08-27T12:15:17.746Z,51.9
2017-08-27T12:16:16.821Z,49.8
2017-08-27T12:17:16.757Z,50.4
2017-08-27T12:18:16.200Z,51.5
2017-08-27T12:19:15.662Z,51.4
2017-08-27T12:20:14.963Z,51.5
2017-08-27T12:21:14.154Z,52.2
2017-08-27T12:22:13.845Z,51.1
2017-08-27T12:24:12.424Z,52.3
2017-08-27T12:25:11.866Z,52.2
2017-08-27T12:26:11.311Z,52.1
2017-08-27T12:27:10.748Z,52.3
2017-08-27T12:28:10.188Z,52.2
2017-08-27T12:29:09.872Z,52.2
2017-08-27T12:30:09.432Z,51.5
2017-08-27T12:31:08.489Z,51.6
2017-08-27T12:32:08.055Z,52.3
2017-08-27T12:33:07.509Z,51.2
2017-08-27T12:34:07.076Z,51.6
2017-08-27T12:35:06.398Z,50.7
2017-08-27T12:36:05.970Z,51.3
2017-08-27T12:37:05.037Z,50.4
2017-08-27T12:38:04.481Z,51.9
2017-08-27T12:39:04.292Z,50.7
2017-08-27T12:40:03.611Z,52.3
2017-08-27T12:42:02.570Z,51.2
2017-08-27T12:43:02.010Z,52.2
2017-08-27T12:44:01.447Z,52.1
2017-08-27T12:44:32.075Z,52.1
2017-08-27T12:45:02.328Z,52.1
2017-08-27T12:45:32.829Z,52.1
2017-08-27T12:46:59.576Z,52.4
2017-08-27T12:47:59.390Z,51.7
2017-08-27T12:48:58.836Z,52.1
2017-08-27T12:49:58.287Z,51.2
2017-08-27T12:50:57.729Z,49.9
2017-08-27T12:51:57.189Z,49.9
2017-08-27T12:52:56.633Z,50
2017-08-27T12:53:56.217Z,50.6
2017-08-27T12:54:55.272Z,49.4
2017-08-27T12:55:25.781Z,49.4
2017-08-27T12:55:56.035Z,50.9
2017-08-27T12:56:26.814Z,50.9
2017-08-27T12:57:53.562Z,49.7
2017-08-27T12:58:53.014Z,50.8
2017-08-27T12:59:52.394Z,50.1
2017-08-27T13:00:51.966Z,50.4
2017-08-27T13:01:51.557Z,49.2
2017-08-27T13:02:50.995Z,49
2017-08-27T13:03:50.687Z,50
2017-08-27T13:04:49.629Z,49.8
2017-08-27T13:05:49.567Z,49.7
2017-08-27T13:06:48.518Z,50.6
2017-08-27T13:07:48.339Z,48.6
2017-08-27T13:08:47.915Z,49.2
2017-08-27T13:09:47.366Z,50.4
2017-08-27T13:10:46.945Z,50.1
2017-08-27T13:11:46.024Z,51.9
2017-08-27T13:12:45.846Z,50.8
2017-08-27T13:13:44.784Z,50.7
2017-08-27T13:14:44.223Z,51.4
2017-08-27T13:15:44.162Z,50.8
2017-08-27T13:16:43.226Z,51
2017-08-27T13:17:42.678Z,52.5
2017-08-27T13:18:42.368Z,51
2017-08-27T13:19:41.951Z,51.1
2017-08-27T13:20:41.279Z,51
2017-08-27T13:21:40.462Z,50.6
2017-08-27T13:22:39.902Z,49.9
2017-08-27T13:23:39.851Z,49
2017-08-27T13:24:39.169Z,49.3
2017-08-27T13:25:38.254Z,50.5
2017-08-27T13:26:38.076Z,49.6
2017-08-27T13:27:37.500Z,49.6
2017-08-27T13:28:36.821Z,49.8
2017-08-27T13:29:36.514Z,50.6
2017-08-27T13:30:35.575Z,49.3
2017-08-27T13:31:35.019Z,50.1
2017-08-27T13:32:34.718Z,50.1
2017-08-27T13:33:34.033Z,50.1
2017-08-27T13:34:33.347Z,50.2
2017-08-27T13:35:32.792Z,50.3
2017-08-27T13:36:32.599Z,49.8
2017-08-27T13:37:31.913Z,51.1
2017-08-27T13:38:31.616Z,50
2017-08-27T13:39:31.178Z,51
2017-08-27T13:40:30.481Z,50.1
2017-08-27T13:42:29.315Z,50.1
2017-08-27T13:44:28.400Z,50.8
2017-08-27T13:45:27.845Z,51.8
2017-08-27T13:46:27.327Z,50.8
2017-08-27T13:47:26.384Z,50.9
2017-08-27T13:48:26.228Z,50.4
2017-08-27T13:49:25.543Z,50.6
2017-08-27T13:50:25.247Z,50.8
2017-08-27T13:51:24.310Z,52.2
2017-08-27T13:52:23.759Z,51.5
2017-08-27T13:52:54.144Z,51.5
2017-08-27T13:53:24.520Z,52.4
2017-08-27T13:55:22.591Z,52
2017-08-27T13:56:22.023Z,52.6
2017-08-27T13:57:21.469Z,51.7
2017-08-27T13:58:20.789Z,50.8
2017-08-27T13:59:20.238Z,50.2
2017-08-27T14:00:19.806Z,50.7
2017-08-27T14:01:19.126Z,50.8
2017-08-27T14:02:18.824Z,50.4
2017-08-27T14:03:18.138Z,50.6
2017-08-27T14:04:17.198Z,49.7
2017-08-27T14:06:16.406Z,50.4
2017-08-27T14:07:15.845Z,50.3
2017-08-27T14:08:15.291Z,50.2
2017-08-27T14:09:14.739Z,49.6
2017-08-27T14:10:14.169Z,49.8
2017-08-27T14:11:13.595Z,50.7
2017-08-27T14:12:13.409Z,50.6
2017-08-27T14:13:12.726Z,51.4
2017-08-27T14:14:12.183Z,50.4
2017-08-27T14:15:11.629Z,49.4
2017-08-27T14:17:10.840Z,49.5
2017-08-27T14:18:09.913Z,49.7
2017-08-27T14:19:09.291Z,49.6
2017-08-27T14:20:09.112Z,49.5
2017-08-27T14:21:08.315Z,50.2
2017-08-27T14:22:08.020Z,49.7
2017-08-27T14:23:07.328Z,49.5
2017-08-27T14:24:07.024Z,50.1
2017-08-27T14:25:06.329Z,49.2
2017-08-27T14:28:04.800Z,48.7
2017-08-27T14:29:04.122Z,48.8
2017-08-27T14:30:03.430Z,48.7
2017-08-27T14:31:03.491Z,48.5
2017-08-27T14:32:03.122Z,48.5
2017-08-27T14:33:02.063Z,49.6
2017-08-27T14:34:01.505Z,50
2017-08-27T14:35:00.951Z,50.4
2017-08-27T14:36:00.397Z,49.8
2017-08-27T14:36:30.648Z,49.8
2017-08-27T14:37:01.150Z,49.6
2017-08-27T14:37:59.720Z,50.1
2017-08-27T14:38:59.190Z,49.5
2017-08-27T14:39:58.377Z,49.8
2017-08-27T14:40:57.947Z,50.2
2017-08-27T14:41:57.501Z,49
2017-08-27T14:42:56.808Z,49.1
2017-08-27T14:43:56.243Z,49.5
2017-08-27T14:44:55.671Z,49.6
2017-08-27T14:45:55.106Z,49.6
2017-08-27T14:46:54.931Z,49.7
2017-08-27T14:47:54.374Z,49.1
2017-08-27T14:48:24.633Z,49.1
2017-08-27T14:49:53.014Z,49.4
2017-08-27T14:50:52.820Z,49
2017-08-27T14:51:52.139Z,49.8
2017-08-27T14:52:51.715Z,48.7
2017-08-27T14:53:51.173Z,49.3
2017-08-27T14:54:50.368Z,49.6
2017-08-27T14:55:49.814Z,49.4
2017-08-27T14:56:49.629Z,49.5
2017-08-27T14:57:48.945Z,48.7
2017-08-27T14:58:48.132Z,48.3
2017-08-27T14:59:47.842Z,49.1
2017-08-27T15:00:47.281Z,48.5
2017-08-27T15:01:46.735Z,48.7
2017-08-27T15:02:46.430Z,48.9
2017-08-27T15:03:45.870Z,49.6
2017-08-27T15:04:45.439Z,49.1
2017-08-27T15:05:44.635Z,49.3
2017-08-27T15:06:44.076Z,48.9
2017-08-27T15:07:43.519Z,49.5
2017-08-27T15:08:43.083Z,49.4
2017-08-27T15:09:42.412Z,48.5
2017-08-27T15:10:41.999Z,49.2
2017-08-27T15:11:41.320Z,49.5
2017-08-27T15:12:40.763Z,49